sensor_id;sensor_type;location;lat;lon;timestamp;P1;durP1;ratioP1;P2;durP2;ratioP2
26177;SDS011;13924;47.670;10.310;2024-02-16T00:00:38;3.8;;;3.1;;
26177;SDS011;13924;47.670;10.310;2024-02-16T00:15:39;4.6;;;3.2;;
26177;SDS011;13924;47.670;10.310;2024-02-16T00:30:39;4.6;;;3.6;;
26177;SDS011;13924;47.670;10.310;2024-02-16T00:45:39;6.0;;;3.8;;
26177;SDS011;13924;47.670;10.310;2024-02-16T01:00:40;6.0;;;3.7;;
26177;SDS011;13924;47.670;10.310;2024-02-16T01:15:41;6.9;;;4.1;;
26177;SDS011;13924;47.670;10.310;2024-02-16T01:30:42;5.0;;;3.3;;
26177;SDS011;13924;47.670;10.310;2024-02-16T01:45:43;7.7;;;3.8;;
26177;SDS011;13924;47.670;10.310;2024-02-16T02:00:44;5.0;;;3.6;;
26177;SDS011;13924;47.670;10.310;2024-02-16T02:01:26;5.6;;;3.6;;
26177;SDS011;13924;47.670;10.310;2024-02-16T02:15:45;4.6;;;3.3;;
26177;SDS011;13924;47.670;10.310;2024-02-16T02:30:45;7.0;;;5.1;;
26177;SDS011;13924;47.670;10.310;2024-02-16T02:45:45;5.3;;;3.5;;
26177;SDS011;13924;47.670;10.310;2024-02-16T03:00:47;6.8;;;2.5;;
26177;SDS011;13924;47.670;10.310;2024-02-16T03:15:46;6.8;;;3.2;;
26177;SDS011;13924;47.670;10.310;2024-02-16T03:30:47;5.9;;;4.1;;
26177;SDS011;13924;47.670;10.310;2024-02-16T03:45:52;8.1;;;3.4;;
26177;SDS011;13924;47.670;10.310;2024-02-16T04:00:48;4.5;;;3.0;;
26177;SDS011;13924;47.670;10.310;2024-02-16T04:15:48;6.7;;;2.6;;
26177;SDS011;13924;47.670;10.310;2024-02-16T04:30:49;3.6;;;1.9;;
26177;SDS011;13924;47.670;10.310;2024-02-16T04:45:54;6.3;;;2.4;;
26177;SDS011;13924;47.670;10.310;2024-02-16T05:00:50;3.0;;;1.5;;
26177;SDS011;13924;47.670;10.310;2024-02-16T05:15:53;4.1;;;2.5;;
26177;SDS011;13924;47.670;10.310;2024-02-16T05:30:53;3.8;;;2.5;;
26177;SDS011;13924;47.670;10.310;2024-02-16T05:45:52;5.4;;;2.2;;
26177;SDS011;13924;47.670;10.310;2024-02-16T06:00:53;2.6;;;2.1;;
26177;SDS011;13924;47.670;10.310;2024-02-16T06:14:57;4.9;;;3.2;;
26177;SDS011;13924;47.670;10.310;2024-02-16T06:29:56;6.5;;;2.3;;
26177;SDS011;13924;47.670;10.310;2024-02-16T06:44:58;6.5;;;3.2;;
26177;SDS011;13924;47.670;10.310;2024-02-16T07:00:07;5.6;;;3.2;;
26177;SDS011;13924;47.670;10.310;2024-02-16T07:14:59;3.6;;;2.3;;
26177;SDS011;13924;47.670;10.310;2024-02-16T07:30:00;4.0;;;1.9;;
26177;SDS011;13924;47.670;10.310;2024-02-16T07:45:00;3.9;;;2.4;;
26177;SDS011;13924;47.670;10.310;2024-02-16T08:00:05;6.6;;;1.9;;
26177;SDS011;13924;47.670;10.310;2024-02-16T08:15:02;3.3;;;1.8;;
26177;SDS011;13924;47.670;10.310;2024-02-16T08:30:03;6.4;;;1.8;;
26177;SDS011;13924;47.670;10.310;2024-02-16T08:45:03;2.2;;;1.5;;
26177;SDS011;13924;47.670;10.310;2024-02-16T09:00:06;2.4;;;1.5;;
26177;SDS011;13924;47.670;10.310;2024-02-16T09:15:05;3.5;;;1.4;;
26177;SDS011;13924;47.670;10.310;2024-02-16T09:30:06;2.5;;;1.1;;
26177;SDS011;13924;47.670;10.310;2024-02-16T09:45:07;2.4;;;0.9;;
26177;SDS011;13924;47.670;10.310;2024-02-16T10:00:08;1.8;;;0.9;;
26177;SDS011;13924;47.670;10.310;2024-02-16T10:15:08;1.2;;;0.9;;
26177;SDS011;13924;47.670;10.310;2024-02-16T10:30:08;1.5;;;0.7;;
26177;SDS011;13924;47.670;10.310;2024-02-16T10:45:09;7.4;;;0.8;;
26177;SDS011;13924;47.670;10.310;2024-02-16T11:00:10;1.6;;;0.8;;
26177;SDS011;13924;47.670;10.310;2024-02-16T11:15:09;3.0;;;1.0;;
26177;SDS011;13924;47.670;10.310;2024-02-16T11:30:10;2.2;;;0.8;;
26177;SDS011;13924;47.670;10.310;2024-02-16T11:45:12;4.2;;;1.0;;
26177;SDS011;13924;47.670;10.310;2024-02-16T12:00:12;3.5;;;1.1;;
26177;SDS011;13924;47.670;10.310;2024-02-16T12:15:12;2.6;;;0.9;;
26177;SDS011;13924;47.670;10.310;2024-02-16T12:30:13;2.6;;;1.2;;
26177;SDS011;13924;47.670;10.310;2024-02-16T12:45:16;4.0;;;1.3;;
26177;SDS011;13924;47.670;10.310;2024-02-16T13:00:14;3.6;;;1.3;;
26177;SDS011;13924;47.670;10.310;2024-02-16T13:15:15;4.1;;;1.6;;
26177;SDS011;13924;47.670;10.310;2024-02-16T13:30:15;5.7;;;1.5;;
26177;SDS011;13924;47.670;10.310;2024-02-16T13:45:16;4.1;;;1.9;;
26177;SDS011;13924;47.670;10.310;2024-02-16T14:00:19;7.6;;;2.2;;
26177;SDS011;13924;47.670;10.310;2024-02-16T14:15:17;10.4;;;2.5;;
26177;SDS011;13924;47.670;10.310;2024-02-16T14:30:18;5.9;;;2.1;;
26177;SDS011;13924;47.670;10.310;2024-02-16T14:45:19;5.3;;;2.4;;
26177;SDS011;13924;47.670;10.310;2024-02-16T15:00:19;10.5;;;2.2;;
26177;SDS011;13924;47.670;10.310;2024-02-16T15:15:22;6.5;;;3.2;;
26177;SDS011;13924;47.670;10.310;2024-02-16T15:30:21;7.9;;;2.4;;
26177;SDS011;13924;47.670;10.310;2024-02-16T15:45:20;10.6;;;2.4;;
26177;SDS011;13924;47.670;10.310;2024-02-16T16:00:24;8.4;;;2.8;;
26177;SDS011;13924;47.670;10.310;2024-02-16T16:15:24;7.1;;;2.7;;
26177;SDS011;13924;47.670;10.310;2024-02-16T16:30:25;7.3;;;3.0;;
26177;SDS011;13924;47.670;10.310;2024-02-16T16:45:25;9.5;;;3.0;;
26177;SDS011;13924;47.670;10.310;2024-02-16T17:00:26;10.7;;;4.5;;
26177;SDS011;13924;47.670;10.310;2024-02-16T17:15:26;14.4;;;4.3;;
26177;SDS011;13924;47.670;10.310;2024-02-16T17:30:27;13.6;;;5.1;;
26177;SDS011;13924;47.670;10.310;2024-02-16T17:45:28;8.3;;;3.5;;
26177;SDS011;13924;47.670;10.310;2024-02-16T18:00:30;16.4;;;9.7;;
26177;SDS011;13924;47.670;10.310;2024-02-16T18:15:32;7.8;;;5.1;;
26177;SDS011;13924;47.670;10.310;2024-02-16T18:30:37;8.5;;;4.2;;
26177;SDS011;13924;47.670;10.310;2024-02-16T18:45:33;21.9;;;10.8;;
26177;SDS011;13924;47.670;10.310;2024-02-16T19:00:36;9.7;;;3.4;;
26177;SDS011;13924;47.670;10.310;2024-02-16T19:15:37;7.4;;;4.4;;
26177;SDS011;13924;47.670;10.310;2024-02-16T19:30:41;8.0;;;3.6;;
26177;SDS011;13924;47.670;10.310;2024-02-16T19:45:38;11.1;;;4.6;;
26177;SDS011;13924;47.670;10.310;2024-02-16T20:00:37;10.8;;;4.9;;
26177;SDS011;13924;47.670;10.310;2024-02-16T20:15:40;6.9;;;3.8;;
26177;SDS011;13924;47.670;10.310;2024-02-16T20:30:38;8.4;;;3.6;;
26177;SDS011;13924;47.670;10.310;2024-02-16T20:45:40;7.7;;;4.6;;
26177;SDS011;13924;47.670;10.310;2024-02-16T21:00:41;6.0;;;3.8;;
26177;SDS011;13924;47.670;10.310;2024-02-16T21:15:39;14.2;;;5.9;;
26177;SDS011;13924;47.670;10.310;2024-02-16T21:30:42;11.9;;;6.3;;
26177;SDS011;13924;47.670;10.310;2024-02-16T21:45:44;17.5;;;7.8;;
26177;SDS011;13924;47.670;10.310;2024-02-16T22:00:43;23.6;;;7.8;;
26177;SDS011;13924;47.670;10.310;2024-02-16T22:15:44;21.3;;;11.3;;
26177;SDS011;13924;47.670;10.310;2024-02-16T22:30:43;15.0;;;8.4;;
26177;SDS011;13924;47.670;10.310;2024-02-16T22:45:45;13.5;;;7.3;;
26177;SDS011;13924;47.670;10.310;2024-02-16T23:00:37;14.3;;;8.6;;
26177;SDS011;13924;47.670;10.310;2024-02-16T23:15:37;12.2;;;7.5;;
26177;SDS011;13924;47.670;10.310;2024-02-16T23:30:37;13.2;;;6.8;;
26177;SDS011;13924;47.670;10.310;2024-02-16T23:45:38;8.6;;;5.3;;
